Time;durP1;ratioP1;P1;durP2;ratioP2;P2;SDS_P1;SDS_P2;PMS_P1;PMS_P2;Temp;Humidity;BMP_temperature;BMP_pressure;BME280_temperature;BME280_humidity;BME280_pressure;Samples;Min_cycle;Max_cycle;Signal;HPM_P1;HPM_P2
2022/03/07 00:00:28;;;;;;;9.23;4.33;;;;;;;;;;5049432;28;20326;-59
2022/03/07 00:02:54;;;;;;;7.27;4.70;;;;;;;;;;5050200;28;20581;-59
2022/03/07 00:05:19;;;;;;;7.77;4.37;;;;;;;;;;5060735;28;20203;-59
2022/03/07 00:07:44;;;;;;;8.00;4.50;;;;;;;;;;5069395;28;20267;-59
2022/03/07 00:10:09;;;;;;;9.07;4.80;;;;;;;;;;5069302;28;20731;-59
2022/03/07 00:12:35;;;;;;;7.13;4.57;;;;;;;;;;5069210;28;20218;-59
2022/03/07 00:15:00;;;;;;;11.17;4.63;;;;;;;;;;5069916;28;20214;-59
2022/03/07 00:17:25;;;;;;;7.47;4.57;;;;;;;;;;5069570;28;20233;-59
2022/03/07 00:19:50;;;;;;;7.37;4.03;;;;;;;;;;5069371;28;20218;-59
2022/03/07 00:22:16;;;;;;;10.20;4.87;;;;;;;;;;5069394;28;20211;-59
2022/03/07 00:24:41;;;;;;;8.17;4.60;;;;;;;;;;5069758;28;20683;-59
2022/03/07 00:27:06;;;;;;;10.30;4.80;;;;;;;;;;5054046;28;20238;-59
2022/03/07 00:29:32;;;;;;;7.23;5.00;;;;;;;;;;5049837;28;20593;-59
2022/03/07 00:31:57;;;;;;;6.53;4.47;;;;;;;;;;5049588;28;20344;-59
2022/03/07 00:34:22;;;;;;;7.47;4.80;;;;;;;;;;5048423;28;20239;-59
2022/03/07 00:36:47;;;;;;;9.33;4.80;;;;;;;;;;5049603;28;20288;-59
2022/03/07 00:39:13;;;;;;;9.37;4.70;;;;;;;;;;5049175;28;20207;-60
2022/03/07 00:41:38;;;;;;;9.90;4.60;;;;;;;;;;5048737;28;20665;-59
2022/03/07 00:44:03;;;;;;;8.27;5.07;;;;;;;;;;5049320;28;20222;-58
2022/03/07 00:46:29;;;;;;;8.40;5.10;;;;;;;;;;5049739;28;20215;-58
2022/03/07 00:48:54;;;;;;;8.40;5.20;;;;;;;;;;5048574;28;20270;-58
2022/03/07 00:51:19;;;;;;;8.40;4.87;;;;;;;;;;5048888;28;20773;-58
2022/03/07 00:53:46;;;;;;;8.23;4.40;;;;;;;;;;5049504;28;20207;-58
2022/03/07 00:56:11;;;;;;;8.47;4.47;;;;;;;;;;5050354;28;20662;-58
2022/03/07 00:58:36;;;;;;;7.17;4.80;;;;;;;;;;5053482;28;20195;-58
2022/03/07 01:01:02;;;;;;;7.60;4.97;;;;;;;;;;5052908;28;20203;-58
2022/03/07 01:03:27;;;;;;;10.37;5.20;;;;;;;;;;5052669;28;20207;-58
2022/03/07 01:05:52;;;;;;;10.20;4.93;;;;;;;;;;5069325;28;20759;-58
2022/03/07 01:08:17;;;;;;;8.53;4.70;;;;;;;;;;5073005;28;20310;-58
2022/03/07 01:10:43;;;;;;;8.87;5.07;;;;;;;;;;5072218;28;20226;-58
2022/03/07 01:13:08;;;;;;;9.83;4.70;;;;;;;;;;5072901;28;20681;-58
2022/03/07 01:15:33;;;;;;;9.00;5.00;;;;;;;;;;5073279;28;20209;-58
2022/03/07 01:18:00;;;;;;;7.97;4.90;;;;;;;;;;5072511;28;20278;-58
2022/03/07 01:20:26;;;;;;;8.63;5.17;;;;;;;;;;5072905;28;20218;-58
2022/03/07 01:22:51;;;;;;;8.30;4.73;;;;;;;;;;5072077;28;20634;-58
2022/03/07 01:25:16;;;;;;;7.00;4.80;;;;;;;;;;5072482;28;20210;-58
2022/03/07 01:27:41;;;;;;;8.13;5.10;;;;;;;;;;5053216;28;20199;-58
2022/03/07 01:30:07;;;;;;;7.73;4.37;;;;;;;;;;5051617;28;20290;-58
2022/03/07 01:32:32;;;;;;;9.87;5.20;;;;;;;;;;5052816;28;20219;-58
2022/03/07 01:34:57;;;;;;;9.30;5.20;;;;;;;;;;5052675;28;20266;-58
2022/03/07 01:37:23;;;;;;;8.33;5.33;;;;;;;;;;5051428;28;20219;-58
2022/03/07 01:39:48;;;;;;;11.90;5.67;;;;;;;;;;5052912;28;20219;-58
2022/03/07 01:42:13;;;;;;;8.50;4.83;;;;;;;;;;5052248;28;20243;-58
2022/03/07 01:44:38;;;;;;;7.87;4.83;;;;;;;;;;5051926;28;20211;-58
2022/03/07 01:47:04;;;;;;;7.63;5.30;;;;;;;;;;5052263;28;20215;-58
2022/03/07 01:49:29;;;;;;;9.60;5.97;;;;;;;;;;5052340;28;20223;-59
2022/03/07 01:51:55;;;;;;;7.23;4.90;;;;;;;;;;5051746;28;20234;-59
2022/03/07 01:54:20;;;;;;;10.63;5.40;;;;;;;;;;5051951;28;20219;-58
2022/03/07 01:56:46;;;;;;;9.23;5.47;;;;;;;;;;5052423;28;20658;-58
2022/03/07 01:59:11;;;;;;;8.90;5.53;;;;;;;;;;5051116;28;20223;-58
2022/03/07 02:01:37;;;;;;;8.27;4.93;;;;;;;;;;5052446;28;20210;-58
2022/03/07 02:04:02;;;;;;;8.27;4.63;;;;;;;;;;5052564;28;20665;-58
2022/03/07 02:06:27;;;;;;;9.63;5.33;;;;;;;;;;5071105;28;20210;-58
2022/03/07 02:08:53;;;;;;;11.07;5.30;;;;;;;;;;5071465;28;20236;-58
2022/03/07 02:11:18;;;;;;;11.43;5.90;;;;;;;;;;5053840;28;20231;-58
2022/03/07 02:13:43;;;;;;;9.63;5.53;;;;;;;;;;5071424;28;20622;-59
2022/03/07 02:16:09;;;;;;;10.23;5.40;;;;;;;;;;5071750;28;20217;-58
2022/03/07 02:18:34;;;;;;;9.17;5.50;;;;;;;;;;5071999;28;20210;-58
2022/03/07 02:21:01;;;;;;;10.13;6.80;;;;;;;;;;5071322;28;20214;-58
2022/03/07 02:23:26;;;;;;;9.80;5.17;;;;;;;;;;5053516;28;20293;-58
2022/03/07 02:25:52;;;;;;;9.37;5.70;;;;;;;;;;5067258;28;20298;-58
2022/03/07 02:28:17;;;;;;;9.63;5.67;;;;;;;;;;5033048;28;20226;-58
2022/03/07 02:30:42;;;;;;;10.03;5.40;;;;;;;;;;5051689;28;20686;-59
2022/03/07 02:33:12;;;;;;;9.83;5.80;;;;;;;;;;5051348;28;20207;-58
2022/03/07 02:35:37;;;;;;;10.93;5.77;;;;;;;;;;5051801;28;20218;-58
2022/03/07 02:38:02;;;;;;;8.63;5.07;;;;;;;;;;5051222;28;20215;-58
2022/03/07 02:40:27;;;;;;;8.10;5.30;;;;;;;;;;5050655;28;20683;-58
2022/03/07 02:42:53;;;;;;;8.03;5.17;;;;;;;;;;5051618;28;20203;-58
2022/03/07 02:45:18;;;;;;;10.27;5.13;;;;;;;;;;5050893;28;20211;-58
2022/03/07 02:47:43;;;;;;;9.30;5.33;;;;;;;;;;5050828;28;20667;-59
2022/03/07 02:50:08;;;;;;;11.53;5.90;;;;;;;;;;5050988;28;20222;-58
2022/03/07 02:52:34;;;;;;;8.83;5.90;;;;;;;;;;5051290;28;20542;-58
2022/03/07 02:54:59;;;;;;;10.83;5.63;;;;;;;;;;5050393;28;20215;-59
2022/03/07 02:57:24;;;;;;;8.30;5.47;;;;;;;;;;5032980;28;20298;-58
2022/03/07 02:59:49;;;;;;;9.53;5.83;;;;;;;;;;5051288;28;20577;-58
2022/03/07 03:02:15;;;;;;;9.90;5.70;;;;;;;;;;5049981;28;20215;-58
2022/03/07 03:04:40;;;;;;;11.27;6.00;;;;;;;;;;5057110;28;20210;-58
2022/03/07 03:07:06;;;;;;;9.00;5.70;;;;;;;;;;5070682;28;20553;-58
2022/03/07 03:09:31;;;;;;;9.90;5.37;;;;;;;;;;5068822;28;20535;-58
2022/03/07 03:11:56;;;;;;;8.30;5.80;;;;;;;;;;5061559;28;20468;-58
2022/03/07 03:14:21;;;;;;;10.83;6.10;;;;;;;;;;5051096;28;20609;-58
2022/03/07 03:16:47;;;;;;;9.30;6.00;;;;;;;;;;5050388;28;20298;-58
2022/03/07 03:19:12;;;;;;;11.60;6.73;;;;;;;;;;5050229;28;20215;-58
2022/03/07 03:21:37;;;;;;;11.77;6.87;;;;;;;;;;5050914;28;20207;-58
2022/03/07 03:24:02;;;;;;;11.97;7.40;;;;;;;;;;5049632;28;20582;-58
2022/03/07 03:26:28;;;;;;;14.00;7.83;;;;;;;;;;5059877;28;20202;-58
2022/03/07 03:28:53;;;;;;;13.30;7.40;;;;;;;;;;5070625;28;20240;-59
2022/03/07 03:31:18;;;;;;;11.67;7.17;;;;;;;;;;5069354;28;20239;-58
2022/03/07 03:33:43;;;;;;;11.53;7.27;;;;;;;;;;5070573;28;20222;-58
2022/03/07 03:36:09;;;;;;;10.47;6.90;;;;;;;;;;5070013;28;20210;-58
2022/03/07 03:38:34;;;;;;;11.07;7.17;;;;;;;;;;5069955;28;20722;-58
2022/03/07 03:40:59;;;;;;;12.03;7.63;;;;;;;;;;5070350;28;20544;-58
2022/03/07 03:43:25;;;;;;;13.80;7.60;;;;;;;;;;5070140;28;20210;-58
2022/03/07 03:45:50;;;;;;;11.07;6.90;;;;;;;;;;5069781;28;20293;-58
2022/03/07 03:48:15;;;;;;;10.77;6.80;;;;;;;;;;5069628;28;20232;-59
2022/03/07 03:50:40;;;;;;;12.70;6.80;;;;;;;;;;5069455;28;20206;-58
2022/03/07 03:53:05;;;;;;;9.60;6.50;;;;;;;;;;5069783;28;20216;-58
2022/03/07 03:55:31;;;;;;;10.07;6.70;;;;;;;;;;5070296;28;20206;-58
2022/03/07 03:57:56;;;;;;;11.93;7.30;;;;;;;;;;5069542;28;20721;-58
2022/03/07 04:00:23;;;;;;;10.90;7.07;;;;;;;;;;5069758;28;20669;-59
2022/03/07 04:02:49;;;;;;;11.23;7.07;;;;;;;;;;5070215;28;20206;-58
2022/03/07 04:05:15;;;;;;;11.57;7.17;;;;;;;;;;5058065;28;20227;-58
2022/03/07 04:07:40;;;;;;;11.90;6.93;;;;;;;;;;5050151;28;20214;-58
2022/03/07 04:10:06;;;;;;;11.50;7.20;;;;;;;;;;5049530;28;20353;-58
2022/03/07 04:12:31;;;;;;;11.43;7.57;;;;;;;;;;5049042;28;20291;-58
2022/03/07 04:14:56;;;;;;;12.37;7.63;;;;;;;;;;5032162;28;20210;-58
2022/03/07 04:17:21;;;;;;;10.43;7.73;;;;;;;;;;5049470;28;20233;-58
2022/03/07 04:19:47;;;;;;;10.90;7.50;;;;;;;;;;5049238;28;20211;-59
2022/03/07 04:22:12;;;;;;;12.97;7.77;;;;;;;;;;5031597;28;20211;-58
2022/03/07 04:24:39;;;;;;;11.67;7.70;;;;;;;;;;5049975;28;20223;-58
2022/03/07 04:27:04;;;;;;;10.40;7.00;;;;;;;;;;5062953;28;20217;-58
2022/03/07 04:29:29;;;;;;;13.07;7.07;;;;;;;;;;5069910;28;20613;-58
2022/03/07 04:31:54;;;;;;;12.23;8.13;;;;;;;;;;5073152;28;20218;-58
2022/03/07 04:34:20;;;;;;;13.67;7.87;;;;;;;;;;5072798;28;20665;-58
2022/03/07 04:36:45;;;;;;;11.73;8.13;;;;;;;;;;5074012;28;20249;-58
2022/03/07 04:39:10;;;;;;;12.87;8.33;;;;;;;;;;5073469;28;20214;-58
2022/03/07 04:41:36;;;;;;;13.63;8.17;;;;;;;;;;5072902;28;20202;-58
2022/03/07 04:44:01;;;;;;;11.80;7.83;;;;;;;;;;5073378;28;20221;-58
2022/03/07 04:46:26;;;;;;;11.37;7.73;;;;;;;;;;5073875;28;20217;-59
2022/03/07 04:48:52;;;;;;;13.07;8.40;;;;;;;;;;5054810;28;20324;-58
2022/03/07 04:51:17;;;;;;;12.87;8.60;;;;;;;;;;5073208;28;20280;-58
2022/03/07 04:53:42;;;;;;;13.90;7.60;;;;;;;;;;5073485;28;20210;-58
2022/03/07 04:56:07;;;;;;;11.67;7.60;;;;;;;;;;5072336;28;20352;-59
2022/03/07 04:58:33;;;;;;;12.97;8.80;;;;;;;;;;5073411;28;20207;-59
2022/03/07 05:00:59;;;;;;;13.33;7.80;;;;;;;;;;5072542;28;20286;-58
2022/03/07 05:03:24;;;;;;;12.00;7.97;;;;;;;;;;5072937;28;20700;-58
2022/03/07 05:05:49;;;;;;;13.03;7.70;;;;;;;;;;5057860;28;20211;-58
2022/03/07 05:08:15;;;;;;;11.27;7.73;;;;;;;;;;5052039;28;20252;-58
2022/03/07 05:10:40;;;;;;;12.77;8.00;;;;;;;;;;5053221;28;20206;-58
2022/03/07 05:13:05;;;;;;;12.37;7.97;;;;;;;;;;5052605;28;20214;-58
2022/03/07 05:15:31;;;;;;;13.83;7.87;;;;;;;;;;5034591;28;20200;-58
2022/03/07 05:17:56;;;;;;;13.40;8.57;;;;;;;;;;5053352;28;20207;-58
2022/03/07 05:20:22;;;;;;;11.90;7.93;;;;;;;;;;5052622;28;20670;-58
2022/03/07 05:22:47;;;;;;;12.93;8.17;;;;;;;;;;5052188;28;20202;-58
2022/03/07 05:25:13;;;;;;;11.87;7.87;;;;;;;;;;5034731;28;20207;-58
2022/03/07 05:27:38;;;;;;;13.83;8.37;;;;;;;;;;5053854;28;20202;-58
2022/03/07 05:30:04;;;;;;;11.43;8.27;;;;;;;;;;5071875;28;20241;-59
2022/03/07 05:32:29;;;;;;;12.07;7.93;;;;;;;;;;5072810;28;20225;-58
2022/03/07 05:34:54;;;;;;;11.77;7.63;;;;;;;;;;5073112;28;20210;-58
2022/03/07 05:37:19;;;;;;;13.17;8.10;;;;;;;;;;5071529;28;20576;-58
2022/03/07 05:39:45;;;;;;;11.40;7.63;;;;;;;;;;5072634;28;20206;-58
2022/03/07 05:42:10;;;;;;;11.80;7.87;;;;;;;;;;5072181;28;20735;-58
2022/03/07 05:44:35;;;;;;;11.90;8.20;;;;;;;;;;5071893;28;20206;-58
2022/03/07 05:47:01;;;;;;;13.23;8.10;;;;;;;;;;5072259;28;20217;-57
2022/03/07 05:49:26;;;;;;;11.40;7.63;;;;;;;;;;5070332;28;20226;-58
2022/03/07 05:51:51;;;;;;;12.60;7.53;;;;;;;;;;5044167;28;20648;-58
2022/03/07 05:54:16;;;;;;;12.47;7.90;;;;;;;;;;5052613;28;20215;-58
2022/03/07 05:56:42;;;;;;;13.63;9.00;;;;;;;;;;5038606;28;20322;-58
2022/03/07 05:59:08;;;;;;;14.40;8.13;;;;;;;;;;5054538;28;20310;-58
2022/03/07 06:01:33;;;;;;;14.90;8.70;;;;;;;;;;5066142;28;20264;-58
2022/03/07 06:03:58;;;;;;;14.10;9.23;;;;;;;;;;5065564;28;20211;-58
2022/03/07 06:06:24;;;;;;;14.23;8.83;;;;;;;;;;5045523;28;20207;-58
2022/03/07 06:08:49;;;;;;;10.70;8.33;;;;;;;;;;5065944;28;20296;-58
2022/03/07 06:11:14;;;;;;;13.87;8.33;;;;;;;;;;5064650;28;20790;-58
2022/03/07 06:13:39;;;;;;;14.17;9.47;;;;;;;;;;5060501;28;20301;-58
2022/03/07 06:16:06;;;;;;;11.97;8.17;;;;;;;;;;5037974;28;20207;-58
2022/03/07 06:18:31;;;;;;;14.47;9.00;;;;;;;;;;5038473;28;20515;-66
2022/03/07 06:20:56;;;;;;;13.30;8.47;;;;;;;;;;5042982;28;20218;-61
2022/03/07 06:23:22;;;;;;;12.73;8.80;;;;;;;;;;5046343;28;20658;-58
2022/03/07 06:25:47;;;;;;;12.97;8.53;;;;;;;;;;5060641;28;20219;-59
2022/03/07 06:28:12;;;;;;;13.43;10.27;;;;;;;;;;5046726;28;20423;-71
2022/03/07 06:30:37;;;;;;;13.83;9.50;;;;;;;;;;5049230;28;20257;-59
2022/03/07 06:33:03;;;;;;;10.60;7.83;;;;;;;;;;5050569;28;20207;-59
2022/03/07 06:35:28;;;;;;;11.70;8.73;;;;;;;;;;5050818;28;20207;-59
2022/03/07 06:37:53;;;;;;;13.27;9.27;;;;;;;;;;5051080;28;20215;-59
2022/03/07 06:40:19;;;;;;;12.47;8.40;;;;;;;;;;5049729;28;20215;-59
2022/03/07 06:42:46;;;;;;;16.50;9.13;;;;;;;;;;5051091;28;20665;-59
2022/03/07 06:45:12;;;;;;;11.37;8.03;;;;;;;;;;5050272;28;20321;-59
2022/03/07 06:47:38;;;;;;;14.30;8.80;;;;;;;;;;5050686;28;20226;-59
2022/03/07 06:50:03;;;;;;;12.87;9.10;;;;;;;;;;5050522;28;20227;-58
2022/03/07 06:52:29;;;;;;;13.37;8.33;;;;;;;;;;5032268;28;20314;-59
2022/03/07 06:54:54;;;;;;;12.50;8.63;;;;;;;;;;5049548;28;20290;-59
2022/03/07 06:57:20;;;;;;;11.63;8.17;;;;;;;;;;5049925;28;20222;-59
2022/03/07 06:59:45;;;;;;;10.63;8.43;;;;;;;;;;5050769;28;20207;-58
2022/03/07 07:02:10;;;;;;;15.17;8.80;;;;;;;;;;5049385;28;20207;-59
2022/03/07 07:04:36;;;;;;;11.97;8.90;;;;;;;;;;5055944;28;20699;-59
2022/03/07 07:07:01;;;;;;;12.90;8.43;;;;;;;;;;5070073;28;20293;-58
2022/03/07 07:09:26;;;;;;;13.07;9.07;;;;;;;;;;5069927;28;20240;-59
2022/03/07 07:11:51;;;;;;;12.73;9.40;;;;;;;;;;5070301;28;20246;-58
2022/03/07 07:14:17;;;;;;;14.60;9.40;;;;;;;;;;5070151;28;20700;-58
2022/03/07 07:16:42;;;;;;;12.73;8.67;;;;;;;;;;5069710;28;20218;-58
2022/03/07 07:19:07;;;;;;;13.47;9.33;;;;;;;;;;5069946;28;20210;-59
2022/03/07 07:21:32;;;;;;;11.60;7.87;;;;;;;;;;5069865;28;20237;-58
2022/03/07 07:23:58;;;;;;;13.27;9.40;;;;;;;;;;5070623;28;20276;-60
2022/03/07 07:26:23;;;;;;;13.43;9.47;;;;;;;;;;5069702;28;20293;-59
2022/03/07 07:28:48;;;;;;;13.10;9.57;;;;;;;;;;5034216;28;20207;-58
2022/03/07 07:31:13;;;;;;;14.57;9.10;;;;;;;;;;5069341;28;20222;-59
2022/03/07 07:33:39;;;;;;;13.27;8.93;;;;;;;;;;5062878;28;20214;-59
2022/03/07 07:36:04;;;;;;;12.33;8.97;;;;;;;;;;5064501;28;20249;-59
2022/03/07 07:38:29;;;;;;;14.53;8.33;;;;;;;;;;5059098;28;20217;-59
2022/03/07 07:40:55;;;;;;;11.40;8.57;;;;;;;;;;5069158;28;20583;-59
2022/03/07 07:43:21;;;;;;;11.70;8.30;;;;;;;;;;5052683;28;20269;-59
2022/03/07 07:45:46;;;;;;;12.27;8.10;;;;;;;;;;5050195;28;20222;-59
2022/03/07 07:48:11;;;;;;;12.73;7.93;;;;;;;;;;5049904;28;20264;-60
2022/03/07 07:50:37;;;;;;;11.30;8.03;;;;;;;;;;5049601;28;20211;-74
2022/03/07 07:53:02;;;;;;;12.13;8.30;;;;;;;;;;5032136;28;20216;-75
2022/03/07 07:55:27;;;;;;;13.73;7.93;;;;;;;;;;5032465;28;20219;-75
2022/03/07 07:57:52;;;;;;;12.27;7.57;;;;;;;;;;5049724;28;20544;-75
2022/03/07 08:00:20;;;;;;;10.77;7.57;;;;;;;;;;5049630;28;20245;-75
2022/03/07 08:02:46;;;;;;;11.63;7.80;;;;;;;;;;5050083;28;20257;-75
2022/03/07 08:05:11;;;;;;;13.87;7.50;;;;;;;;;;5053202;28;20520;-74
2022/03/07 08:07:39;;;;;;;12.47;8.07;;;;;;;;;;5050279;28;20645;-73
2022/03/07 08:10:04;;;;;;;12.20;8.50;;;;;;;;;;5049762;28;20218;-60
2022/03/07 08:12:30;;;;;;;11.60;7.75;;;;;;;;;;5049564;28;20218;-59
2022/03/07 08:14:56;;;;;;;9.75;7.38;;;;;;;;;;5058890;28;20214;-59
2022/03/07 08:17:21;;;;;;;10.02;7.45;;;;;;;;;;5049710;28;20313;-59
2022/03/07 08:19:46;;;;;;;11.20;7.75;;;;;;;;;;5049270;28;20211;-59
2022/03/07 08:22:11;;;;;;;9.27;6.70;;;;;;;;;;5049674;28;20553;-59
2022/03/07 08:24:37;;;;;;;10.00;7.28;;;;;;;;;;5064638;28;20241;-59
2022/03/07 08:27:02;;;;;;;13.13;9.20;;;;;;;;;;5054458;28;20576;-59
2022/03/07 08:29:27;;;;;;;9.95;6.72;;;;;;;;;;5049947;28;20215;-60
2022/03/07 08:31:53;;;;;;;9.30;6.93;;;;;;;;;;5057992;28;20329;-59
2022/03/07 08:34:18;;;;;;;9.55;7.40;;;;;;;;;;5069452;28;20215;-59
2022/03/07 08:36:43;;;;;;;9.23;6.80;;;;;;;;;;5070032;28;20298;-59
2022/03/07 08:39:08;;;;;;;10.13;7.15;;;;;;;;;;5068863;28;20218;-60
2022/03/07 08:41:35;;;;;;;12.27;7.68;;;;;;;;;;5054804;28;20585;-61
2022/03/07 08:44:00;;;;;;;12.90;7.85;;;;;;;;;;5049713;28;20203;-61
2022/03/07 08:46:26;;;;;;;10.50;7.40;;;;;;;;;;5048789;28;20858;-61
2022/03/07 08:48:51;;;;;;;11.52;7.47;;;;;;;;;;5049672;28;20227;-61
2022/03/07 08:51:17;;;;;;;9.45;7.20;;;;;;;;;;5049395;28;20318;-58
2022/03/07 08:53:42;;;;;;;10.35;7.90;;;;;;;;;;5049236;28;20217;-58
2022/03/07 08:56:07;;;;;;;12.98;7.72;;;;;;;;;;5049368;28;20210;-59
2022/03/07 08:58:32;;;;;;;12.88;8.02;;;;;;;;;;5049783;28;20306;-58
2022/03/07 09:00:58;;;;;;;12.88;8.30;;;;;;;;;;5048798;28;20226;-58
2022/03/07 09:03:23;;;;;;;10.63;8.25;;;;;;;;;;5049295;28;20211;-58
2022/03/07 09:05:48;;;;;;;11.68;8.07;;;;;;;;;;5065251;28;20639;-58
2022/03/07 09:08:13;;;;;;;10.68;8.20;;;;;;;;;;5066722;28;20217;-58
2022/03/07 09:10:39;;;;;;;10.85;8.35;;;;;;;;;;5069682;28;20206;-58
2022/03/07 09:13:04;;;;;;;10.27;8.02;;;;;;;;;;5069140;28;20678;-59
2022/03/07 09:15:29;;;;;;;12.18;8.10;;;;;;;;;;5068419;28;20221;-58
2022/03/07 09:17:54;;;;;;;10.80;8.18;;;;;;;;;;5072391;28;20225;-58
2022/03/07 09:20:20;;;;;;;9.52;7.13;;;;;;;;;;5072843;28;20222;-58
2022/03/07 09:22:45;;;;;;;10.85;7.15;;;;;;;;;;5072597;28;20272;-58
2022/03/07 09:25:10;;;;;;;9.48;6.93;;;;;;;;;;5072780;28;20225;-59
2022/03/07 09:27:36;;;;;;;10.68;7.72;;;;;;;;;;5054394;28;20727;-59
2022/03/07 09:30:02;;;;;;;10.48;7.40;;;;;;;;;;5051819;28;20207;-59
2022/03/07 09:32:27;;;;;;;10.32;6.75;;;;;;;;;;5052842;28;20219;-59
2022/03/07 09:34:53;;;;;;;12.50;7.30;;;;;;;;;;5053028;28;20207;-59
2022/03/07 09:37:18;;;;;;;12.52;7.97;;;;;;;;;;5052036;28;20215;-59
2022/03/07 09:39:44;;;;;;;12.43;8.20;;;;;;;;;;5052900;28;20219;-59
2022/03/07 09:42:09;;;;;;;10.55;7.90;;;;;;;;;;5071125;28;20455;-59
2022/03/07 09:44:34;;;;;;;12.90;9.18;;;;;;;;;;5071850;28;20217;-59
2022/03/07 09:47:00;;;;;;;13.00;7.80;;;;;;;;;;5072829;28;20206;-59
2022/03/07 09:49:25;;;;;;;10.68;7.00;;;;;;;;;;5071023;28;20230;-59
2022/03/07 09:51:51;;;;;;;12.13;7.18;;;;;;;;;;5054670;28;20228;-59
2022/03/07 09:54:16;;;;;;;10.85;7.20;;;;;;;;;;5072092;28;20301;-59
2022/03/07 09:56:41;;;;;;;8.82;6.32;;;;;;;;;;5071736;28;20211;-59
2022/03/07 09:59:07;;;;;;;10.65;6.38;;;;;;;;;;5071827;28;20210;-59
2022/03/07 10:01:32;;;;;;;8.40;6.47;;;;;;;;;;5072626;28;20206;-59
2022/03/07 10:04:04;;;;;;;8.43;6.47;;;;;;;;;;5071384;28;20592;-59
2022/03/07 10:06:31;;;;;;;9.90;6.45;;;;;;;;;;5051949;28;20207;-59
2022/03/07 10:08:58;;;;;;;8.77;6.60;;;;;;;;;;5052283;28;20214;-59
2022/03/07 10:11:23;;;;;;;10.38;6.28;;;;;;;;;;5051002;28;20219;-59
2022/03/07 10:13:49;;;;;;;8.57;6.07;;;;;;;;;;5051848;28;20222;-59
2022/03/07 10:16:14;;;;;;;11.15;5.78;;;;;;;;;;5051750;28;20292;-58
2022/03/07 10:18:47;;;;;;;8.30;5.85;;;;;;;;;;5051344;28;20242;-59
2022/03/07 10:21:12;;;;;;;8.05;5.60;;;;;;;;;;5051557;28;20218;-59
2022/03/07 10:23:37;;;;;;;7.13;4.78;;;;;;;;;;5034188;28;20211;-59
2022/03/07 10:26:04;;;;;;;6.93;4.80;;;;;;;;;;5039221;28;20297;-59
2022/03/07 10:28:33;;;;;;;8.85;4.95;;;;;;;;;;5068517;28;20286;-58
2022/03/07 10:30:58;;;;;;;9.82;5.70;;;;;;;;;;5053829;28;20250;-59
2022/03/07 10:33:25;;;;;;;8.20;5.72;;;;;;;;;;5071293;28;20295;-59
2022/03/07 10:35:53;;;;;;;7.13;5.28;;;;;;;;;;5071479;28;20449;-59
2022/03/07 10:38:20;;;;;;;7.97;5.03;;;;;;;;;;5071314;28;20712;-59
2022/03/07 10:40:47;;;;;;;8.65;5.50;;;;;;;;;;5074651;28;20665;-59
2022/03/07 10:43:13;;;;;;;8.27;5.00;;;;;;;;;;5090981;28;20210;-59
2022/03/07 10:45:47;;;;;;;9.90;5.80;;;;;;;;;;5090938;28;20263;-59
2022/03/07 10:48:12;;;;;;;9.32;6.10;;;;;;;;;;5091017;28;20221;-59
2022/03/07 10:50:37;;;;;;;10.95;6.05;;;;;;;;;;5091070;28;20695;-59
2022/03/07 10:53:04;;;;;;;9.52;6.13;;;;;;;;;;5089829;28;20672;-59
2022/03/07 10:55:29;;;;;;;9.82;6.65;;;;;;;;;;5091729;28;20202;-59
2022/03/07 10:58:04;;;;;;;10.30;6.57;;;;;;;;;;5091276;28;20564;-59
2022/03/07 11:00:29;;;;;;;8.15;5.80;;;;;;;;;;5090486;28;20209;-59
2022/03/07 11:02:55;;;;;;;10.18;6.75;;;;;;;;;;5091637;28;20224;-59
2022/03/07 11:05:20;;;;;;;12.57;7.95;;;;;;;;;;5078914;28;20305;-59
2022/03/07 11:07:46;;;;;;;10.43;6.70;;;;;;;;;;5070411;28;20445;-59
2022/03/07 11:10:12;;;;;;;8.15;5.70;;;;;;;;;;5070662;28;20617;-58
2022/03/07 11:12:37;;;;;;;9.05;6.25;;;;;;;;;;5070801;28;20211;-58
2022/03/07 11:15:08;;;;;;;9.13;6.28;;;;;;;;;;5069412;28;20218;-59
2022/03/07 11:17:41;;;;;;;8.10;6.15;;;;;;;;;;5071063;28;20274;-58
2022/03/07 11:20:07;;;;;;;9.73;6.22;;;;;;;;;;5070268;28;20264;-58
2022/03/07 11:22:32;;;;;;;11.40;7.90;;;;;;;;;;5070396;28;20348;-58
2022/03/07 11:24:58;;;;;;;11.43;8.02;;;;;;;;;;5070909;28;20327;-58
2022/03/07 11:27:23;;;;;;;10.55;6.70;;;;;;;;;;5053275;28;20571;-58
2022/03/07 11:29:49;;;;;;;10.38;7.00;;;;;;;;;;5015352;28;20214;-59
2022/03/07 11:32:15;;;;;;;10.85;7.65;;;;;;;;;;5057919;28;20222;-59
2022/03/07 11:34:50;;;;;;;10.75;7.28;;;;;;;;;;5067570;28;20220;-59
2022/03/07 11:37:16;;;;;;;12.00;7.80;;;;;;;;;;5070008;28;20711;-59
2022/03/07 11:39:42;;;;;;;15.27;7.45;;;;;;;;;;5070453;28;20687;-59
2022/03/07 11:42:09;;;;;;;9.67;7.27;;;;;;;;;;5067896;28;20210;-59
2022/03/07 11:44:34;;;;;;;13.30;7.73;;;;;;;;;;5070357;28;20629;-59
2022/03/07 11:47:06;;;;;;;10.73;7.63;;;;;;;;;;5070734;28;20746;-59
2022/03/07 11:49:31;;;;;;;9.95;7.90;;;;;;;;;;5069214;28;20215;-59
2022/03/07 11:51:57;;;;;;;15.35;10.48;;;;;;;;;;5070302;28;20214;-59
2022/03/07 11:54:23;;;;;;;12.85;8.60;;;;;;;;;;5069910;28;20263;-59
2022/03/07 11:56:48;;;;;;;13.35;9.02;;;;;;;;;;5069807;28;20617;-59
2022/03/07 11:59:13;;;;;;;12.48;8.70;;;;;;;;;;5069610;28;20669;-59
2022/03/07 12:01:39;;;;;;;13.82;9.85;;;;;;;;;;5070325;28;20214;-59
2022/03/07 12:04:07;;;;;;;14.35;9.10;;;;;;;;;;5067842;28;20230;-59
2022/03/07 12:06:39;;;;;;;10.73;7.95;;;;;;;;;;5049953;28;20207;-58
2022/03/07 12:09:04;;;;;;;9.98;7.40;;;;;;;;;;5049658;28;20218;-58
2022/03/07 12:11:31;;;;;;;12.95;7.50;;;;;;;;;;5049337;28;20215;-59
2022/03/07 12:14:02;;;;;;;12.30;7.40;;;;;;;;;;5049730;28;20253;-59
2022/03/07 12:16:28;;;;;;;9.13;6.73;;;;;;;;;;5049933;28;20211;-59
2022/03/07 12:18:54;;;;;;;9.82;6.75;;;;;;;;;;5049258;28;20215;-59
2022/03/07 12:21:24;;;;;;;9.75;6.63;;;;;;;;;;5049481;28;20222;-59
2022/03/07 12:23:49;;;;;;;11.10;6.72;;;;;;;;;;5074118;28;20270;-58
2022/03/07 12:26:14;;;;;;;10.15;5.78;;;;;;;;;;5061025;28;20215;-59
2022/03/07 12:28:41;;;;;;;10.27;5.88;;;;;;;;;;5049775;28;20211;-58
2022/03/07 12:31:06;;;;;;;10.52;5.85;;;;;;;;;;5048561;28;20704;-57
2022/03/07 12:33:32;;;;;;;9.75;6.72;;;;;;;;;;5050076;28;20222;-57
2022/03/07 12:35:59;;;;;;;9.50;6.17;;;;;;;;;;5049807;28;20203;-57
2022/03/07 12:38:24;;;;;;;9.20;6.40;;;;;;;;;;5048614;28;20669;-56
2022/03/07 12:40:50;;;;;;;10.85;6.57;;;;;;;;;;5050883;28;20217;-57
2022/03/07 12:43:15;;;;;;;10.85;6.53;;;;;;;;;;5048971;28;20215;-57
2022/03/07 12:45:44;;;;;;;10.73;7.10;;;;;;;;;;5048980;28;20211;-57
2022/03/07 12:48:09;;;;;;;10.50;7.60;;;;;;;;;;5049070;28;20211;-57
2022/03/07 12:50:36;;;;;;;10.00;8.20;;;;;;;;;;5049835;28;20222;-57
2022/03/07 12:53:01;;;;;;;7.70;5.13;;;;;;;;;;5052041;28;20230;-57
2022/03/07 12:55:26;;;;;;;11.77;6.80;;;;;;;;;;5053697;28;20214;-57
2022/03/07 12:57:56;;;;;;;6.97;4.30;;;;;;;;;;5053468;28;20782;-57
2022/03/07 13:00:21;;;;;;;9.95;5.53;;;;;;;;;;5052567;28;20211;-57
2022/03/07 13:02:48;;;;;;;11.60;6.30;;;;;;;;;;5053760;28;20282;-58
2022/03/07 13:05:14;;;;;;;8.95;6.13;;;;;;;;;;5063724;28;20206;-59
2022/03/07 13:07:39;;;;;;;9.70;6.10;;;;;;;;;;5072839;28;20211;-58
2022/03/07 13:10:06;;;;;;;9.52;6.32;;;;;;;;;;5073094;28;20264;-58
2022/03/07 13:12:32;;;;;;;8.68;6.18;;;;;;;;;;5073183;28;20780;-58
2022/03/07 13:14:59;;;;;;;8.63;5.35;;;;;;;;;;5054821;28;20680;-59
2022/03/07 13:17:24;;;;;;;9.27;5.90;;;;;;;;;;5072958;28;20721;-58
2022/03/07 13:19:51;;;;;;;9.63;7.22;;;;;;;;;;5073169;28;20207;-58
2022/03/07 13:22:16;;;;;;;9.45;6.45;;;;;;;;;;5072053;28;20302;-58
2022/03/07 13:24:42;;;;;;;9.27;6.18;;;;;;;;;;5072853;28;20289;-58
2022/03/07 13:27:08;;;;;;;12.02;7.22;;;;;;;;;;5040043;28;20568;-59
2022/03/07 13:29:35;;;;;;;13.30;9.07;;;;;;;;;;5052760;28;20205;-58
2022/03/07 13:32:01;;;;;;;12.85;9.23;;;;;;;;;;5052681;28;20250;-60
2022/03/07 13:34:27;;;;;;;12.20;8.60;;;;;;;;;;5034557;28;20256;-58
2022/03/07 13:36:54;;;;;;;9.70;5.95;;;;;;;;;;5048757;28;20211;-59
2022/03/07 13:39:25;;;;;;;12.00;8.40;;;;;;;;;;5052292;28;20234;-59
2022/03/07 13:41:59;;;;;;;8.45;5.55;;;;;;;;;;5053231;28;20203;-59
2022/03/07 13:44:24;;;;;;;12.32;7.38;;;;;;;;;;5052249;28;20215;-59
2022/03/07 13:46:52;;;;;;;14.88;10.43;;;;;;;;;;5053070;28;20602;-59
2022/03/07 13:49:17;;;;;;;9.05;6.72;;;;;;;;;;5051494;28;20246;-59
2022/03/07 13:51:42;;;;;;;9.05;5.80;;;;;;;;;;5034588;28;20692;-59
2022/03/07 13:54:07;;;;;;;9.82;6.13;;;;;;;;;;5052298;28;20221;-59
2022/03/07 13:56:33;;;;;;;9.63;5.90;;;;;;;;;;5052178;28;20614;-58
2022/03/07 13:58:58;;;;;;;9.13;7.07;;;;;;;;;;5052739;28;20223;-58
2022/03/07 14:01:27;;;;;;;9.98;6.00;;;;;;;;;;5034166;28;20226;-59
2022/03/07 14:03:53;;;;;;;9.20;5.80;;;;;;;;;;5032780;28;20740;-59
2022/03/07 14:06:19;;;;;;;7.72;5.40;;;;;;;;;;5071300;28;20230;-59
2022/03/07 14:08:44;;;;;;;7.88;5.72;;;;;;;;;;5072405;28;20202;-59
2022/03/07 14:11:12;;;;;;;11.45;6.95;;;;;;;;;;5071325;28;20230;-59
2022/03/07 14:13:39;;;;;;;11.32;7.22;;;;;;;;;;5072432;28;20286;-58
2022/03/07 14:16:05;;;;;;;8.73;5.82;;;;;;;;;;5072006;28;20677;-58
2022/03/07 14:18:30;;;;;;;8.95;6.13;;;;;;;;;;5071584;28;20223;-58
2022/03/07 14:20:55;;;;;;;7.47;5.72;;;;;;;;;;5072220;28;20217;-58
2022/03/07 14:23:21;;;;;;;8.35;5.60;;;;;;;;;;5071773;28;20701;-58
2022/03/07 14:25:46;;;;;;;9.27;5.80;;;;;;;;;;5067486;28;20247;-58